createdAt,value
2022-08-28T00:00:36.152Z,1121.14
2022-08-28T00:01:36.191Z,1121.25
2022-08-28T00:02:36.230Z,1121.25
2022-08-28T00:03:36.159Z,1121.28
2022-08-28T00:04:36.203Z,1121.42
2022-08-28T00:05:36.159Z,1121.31
2022-08-28T00:06:36.179Z,1121.34
2022-08-28T00:07:36.163Z,1121.33
2022-08-28T00:08:36.164Z,1121.31
2022-08-28T00:09:36.168Z,1121.41
2022-08-28T00:10:36.171Z,1121.47
2022-08-28T00:11:36.191Z,1121.48
2022-08-28T00:12:36.179Z,1121.52
2022-08-28T00:13:36.179Z,1121.41
2022-08-28T00:14:36.175Z,1121.38
2022-08-28T00:15:36.178Z,1121.41
2022-08-28T00:16:36.251Z,1121.45
2022-08-28T00:17:36.182Z,1121.34
2022-08-28T00:18:36.208Z,1121.38
2022-08-28T00:19:38.588Z,1121.51
2022-08-28T00:20:36.192Z,1121.5
2022-08-28T00:21:36.215Z,1121.51
2022-08-28T00:22:36.189Z,1121.55
2022-08-28T00:23:42.304Z,1121.58
2022-08-28T00:24:36.197Z,1121.58
2022-08-28T00:25:36.199Z,1121.62
2022-08-28T00:26:36.216Z,1121.67
2022-08-28T00:27:36.201Z,1121.71
2022-08-28T00:28:36.200Z,1121.66
2022-08-28T00:29:36.207Z,1121.7
2022-08-28T00:30:36.210Z,1121.78
2022-08-28T00:31:36.275Z,1121.74
2022-08-28T00:32:36.207Z,1121.75
2022-08-28T00:33:36.209Z,1121.8
2022-08-28T00:34:36.213Z,1121.85
2022-08-28T00:35:36.213Z,1121.93
2022-08-28T00:36:36.233Z,1121.9
2022-08-28T00:37:36.217Z,1122.07
2022-08-28T00:38:36.219Z,1122.09
2022-08-28T00:39:36.225Z,1122.25
2022-08-28T00:40:36.257Z,1122.3
2022-08-28T00:41:36.353Z,1122.37
2022-08-28T00:42:36.225Z,1122.45
2022-08-28T00:43:36.231Z,1122.57
2022-08-28T00:44:36.237Z,1122.62
2022-08-28T00:45:39.738Z,1122.79
2022-08-28T00:46:36.267Z,1122.82
2022-08-28T00:47:36.242Z,1122.91
2022-08-28T00:48:36.358Z,1123
2022-08-28T00:49:36.239Z,1123.13
2022-08-28T00:50:36.242Z,1123.09
2022-08-28T00:51:36.260Z,1123.11
2022-08-28T00:52:36.246Z,1123.18
2022-08-28T00:53:36.250Z,1123.24
2022-08-28T00:54:36.250Z,1123.28
2022-08-28T00:55:36.250Z,1123.3
2022-08-28T00:56:36.268Z,1123.27
2022-08-28T00:57:36.258Z,1123.46
2022-08-28T00:58:36.258Z,1123.55
2022-08-28T00:59:36.281Z,1123.56
2022-08-28T01:00:36.265Z,1123.67
2022-08-28T01:01:36.327Z,1123.71
2022-08-28T01:02:36.346Z,1123.84
2022-08-28T01:03:36.267Z,1123.93
2022-08-28T01:04:36.267Z,1123.95
2022-08-28T01:05:36.268Z,1124.06
2022-08-28T01:06:36.291Z,1124.16
2022-08-28T01:07:36.273Z,1124.18
2022-08-28T01:08:36.273Z,1124.26
2022-08-28T01:09:36.273Z,1124.26
2022-08-28T01:10:36.279Z,1124.24
2022-08-28T01:11:36.301Z,1124.31
2022-08-28T01:12:36.281Z,1124.35
2022-08-28T01:13:36.281Z,1124.38
2022-08-28T01:14:36.281Z,1124.39
2022-08-28T01:15:36.313Z,1124.33
2022-08-28T01:16:36.303Z,1124.38
2022-08-28T01:17:40.092Z,1124.34
2022-08-28T01:18:36.294Z,1124.3
2022-08-28T01:19:36.292Z,1124.31
2022-08-28T01:20:36.296Z,1124.3
2022-08-28T01:21:36.314Z,1124.33
2022-08-28T01:22:36.299Z,1124.27
2022-08-28T01:23:36.307Z,1124.31
2022-08-28T01:24:36.303Z,1124.18
2022-08-28T01:25:36.303Z,1124.2
2022-08-28T01:26:36.329Z,1124.22
2022-08-28T01:27:36.308Z,1124.21
2022-08-28T01:28:39.432Z,1124.29
2022-08-28T01:29:36.311Z,1124.3
2022-08-28T01:30:36.312Z,1124.31
2022-08-28T01:31:36.449Z,1124.36
2022-08-28T01:32:36.314Z,1124.45
2022-08-28T01:33:36.321Z,1124.44
2022-08-28T01:34:36.325Z,1124.44
2022-08-28T01:35:36.320Z,1124.52
2022-08-28T01:36:36.346Z,1124.5
2022-08-28T01:37:36.324Z,1124.64
2022-08-28T01:38:36.329Z,1124.7
2022-08-28T01:39:39.150Z,1124.7
2022-08-28T01:40:36.467Z,1124.8
2022-08-28T01:41:36.359Z,1124.86
2022-08-28T01:42:36.337Z,1124.82
2022-08-28T01:43:36.335Z,1124.82
2022-08-28T01:44:36.341Z,1124.83
2022-08-28T01:45:36.342Z,1124.89
2022-08-28T01:46:36.432Z,1124.82
2022-08-28T01:47:36.346Z,1124.88
2022-08-28T01:48:36.354Z,1124.85
2022-08-28T01:49:36.352Z,1124.9
2022-08-28T01:50:39.115Z,1124.89
2022-08-28T01:51:38.030Z,1124.97
2022-08-28T01:52:36.352Z,1124.92
2022-08-28T01:53:36.358Z,1124.97
2022-08-28T01:54:36.357Z,1124.99
2022-08-28T01:55:36.362Z,1125.01
2022-08-28T01:56:36.395Z,1125.14
2022-08-28T01:57:36.363Z,1125.11
2022-08-28T01:58:38.313Z,1125.14
2022-08-28T01:59:36.387Z,1125.21
2022-08-28T02:00:36.381Z,1125.25
2022-08-28T02:01:39.829Z,1125.38
2022-08-28T02:02:36.377Z,1125.43
2022-08-28T02:03:36.392Z,1125.55
2022-08-28T02:04:36.410Z,1125.54
2022-08-28T02:05:36.417Z,1125.58
2022-08-28T02:06:36.421Z,1125.58
2022-08-28T02:07:36.406Z,1125.7
2022-08-28T02:08:36.383Z,1125.79
2022-08-28T02:09:39.381Z,1125.88
2022-08-28T02:10:36.390Z,1125.89
2022-08-28T02:11:36.387Z,1125.95
2022-08-28T02:12:36.389Z,1125.97
2022-08-28T02:13:36.390Z,1126.05
2022-08-28T02:14:36.395Z,1126.09
2022-08-28T02:15:36.455Z,1126.23
2022-08-28T02:16:36.399Z,1126.24
2022-08-28T02:17:36.396Z,1126.35
2022-08-28T02:18:36.400Z,1126.38
2022-08-28T02:19:36.401Z,1126.44
2022-08-28T02:20:36.424Z,1126.5
2022-08-28T02:21:36.403Z,1126.6
2022-08-28T02:22:36.412Z,1126.61
2022-08-28T02:23:36.411Z,1126.61
2022-08-28T02:24:36.410Z,1126.59
2022-08-28T02:25:36.411Z,1126.61
2022-08-28T02:26:36.416Z,1126.55
2022-08-28T02:27:36.413Z,1126.61
2022-08-28T02:28:36.414Z,1126.64
2022-08-28T02:29:36.424Z,1126.71
2022-08-28T02:30:36.502Z,1126.68
2022-08-28T02:31:36.423Z,1126.69
2022-08-28T02:32:36.425Z,1126.65
2022-08-28T02:33:36.425Z,1126.73
2022-08-28T02:34:36.431Z,1126.77
2022-08-28T02:35:36.430Z,1126.76
2022-08-28T02:36:36.433Z,1126.75
2022-08-28T02:37:36.433Z,1126.74
2022-08-28T02:38:36.434Z,1126.79
2022-08-28T02:39:36.438Z,1126.76
2022-08-28T02:40:36.532Z,1126.79
2022-08-28T02:41:36.439Z,1126.84
2022-08-28T02:42:36.444Z,1126.88
2022-08-28T02:43:36.444Z,1126.93
2022-08-28T02:44:36.448Z,1126.94
2022-08-28T02:45:36.464Z,1126.92
2022-08-28T02:46:36.509Z,1126.95
2022-08-28T02:47:36.451Z,1126.99
2022-08-28T02:48:36.451Z,1127.09
2022-08-28T02:49:36.552Z,1127.04
2022-08-28T02:50:36.465Z,1127.1
2022-08-28T02:51:36.458Z,1127.19
2022-08-28T02:52:36.460Z,1127.16
2022-08-28T02:53:36.466Z,1127.23
2022-08-28T02:54:36.463Z,1127.24
2022-08-28T02:55:36.465Z,1127.22
2022-08-28T02:56:36.469Z,1127.25
2022-08-28T02:57:36.469Z,1127.29
2022-08-28T02:58:36.470Z,1127.28
2022-08-28T02:59:36.472Z,1127.28
2022-08-28T03:00:36.476Z,1127.23
2022-08-28T03:01:36.536Z,1127.19
2022-08-28T03:02:36.546Z,1127.21
2022-08-28T03:03:36.486Z,1127.22
2022-08-28T03:04:36.495Z,1127.2
2022-08-28T03:05:36.483Z,1127.21
2022-08-28T03:06:36.489Z,1127.23
2022-08-28T03:07:36.489Z,1127.28
2022-08-28T03:08:36.487Z,1127.27
2022-08-28T03:09:36.489Z,1127.26
2022-08-28T03:10:36.496Z,1127.3
2022-08-28T03:11:36.492Z,1127.35
2022-08-28T03:12:36.494Z,1127.33
2022-08-28T03:13:36.496Z,1127.41
2022-08-28T03:14:36.504Z,1127.44
2022-08-28T03:15:36.499Z,1127.47
2022-08-28T03:16:36.556Z,1127.46
2022-08-28T03:17:36.507Z,1127.47
2022-08-28T03:18:36.517Z,1127.43
2022-08-28T03:19:36.506Z,1127.45
2022-08-28T03:20:36.515Z,1127.43
2022-08-28T03:21:36.520Z,1127.43
2022-08-28T03:22:36.529Z,1127.43
2022-08-28T03:23:36.526Z,1127.45
2022-08-28T03:24:36.518Z,1127.52
2022-08-28T03:25:36.522Z,1127.46
2022-08-28T03:26:36.522Z,1127.48
2022-08-28T03:27:36.540Z,1127.42
2022-08-28T03:28:36.533Z,1127.42
2022-08-28T03:29:36.528Z,1127.43
2022-08-28T03:30:36.624Z,1127.39
2022-08-28T03:31:36.536Z,1127.36
2022-08-28T03:32:36.557Z,1127.42
2022-08-28T03:33:36.534Z,1127.41
2022-08-28T03:34:36.537Z,1127.48
2022-08-28T03:35:36.538Z,1127.55
2022-08-28T03:36:36.582Z,1127.51
2022-08-28T03:37:36.561Z,1127.51
2022-08-28T03:38:36.544Z,1127.56
2022-08-28T03:39:36.542Z,1127.65
2022-08-28T03:40:36.603Z,1127.67
2022-08-28T03:41:36.564Z,1127.65
2022-08-28T03:42:36.567Z,1127.68
2022-08-28T03:43:36.553Z,1127.73
2022-08-28T03:44:39.671Z,1127.7
2022-08-28T03:45:36.575Z,1127.77
2022-08-28T03:46:36.560Z,1127.69
2022-08-28T03:47:36.578Z,1127.68
2022-08-28T03:48:36.558Z,1127.64
2022-08-28T03:49:36.567Z,1127.68
2022-08-28T03:50:36.563Z,1127.61
2022-08-28T03:51:36.567Z,1127.64
2022-08-28T03:52:36.583Z,1127.66
2022-08-28T03:53:36.749Z,1127.66
2022-08-28T03:54:36.569Z,1127.71
2022-08-28T03:55:39.579Z,1127.7
2022-08-28T03:56:36.578Z,1127.75
2022-08-28T03:57:36.594Z,1127.73
2022-08-28T03:58:36.575Z,1127.77
2022-08-28T03:59:36.581Z,1127.83
2022-08-28T04:00:36.582Z,1127.89
2022-08-28T04:01:36.613Z,1127.93
2022-08-28T04:02:36.601Z,1127.95
2022-08-28T04:03:36.611Z,1127.97
2022-08-28T04:04:36.588Z,1128.06
2022-08-28T04:05:36.590Z,1127.98
2022-08-28T04:06:39.445Z,1128.04
2022-08-28T04:07:36.610Z,1128.04
2022-08-28T04:08:36.597Z,1128.08
2022-08-28T04:09:36.599Z,1128.06
2022-08-28T04:10:36.599Z,1128.05
2022-08-28T04:11:36.601Z,1128.12
2022-08-28T04:12:36.629Z,1128.19
2022-08-28T04:13:36.604Z,1128.16
2022-08-28T04:14:36.608Z,1128.19
2022-08-28T04:15:36.612Z,1128.2
2022-08-28T04:16:36.696Z,1128.19
2022-08-28T04:17:39.877Z,1128.21
2022-08-28T04:18:36.613Z,1128.22
2022-08-28T04:19:36.622Z,1128.24
2022-08-28T04:20:36.617Z,1128.21
2022-08-28T04:21:36.622Z,1128.24
2022-08-28T04:22:36.618Z,1128.27
2022-08-28T04:23:36.620Z,1128.28
2022-08-28T04:24:36.623Z,1128.32
2022-08-28T04:25:36.626Z,1128.3
2022-08-28T04:26:36.631Z,1128.3
2022-08-28T04:27:36.630Z,1128.31
2022-08-28T04:28:39.483Z,1128.35
2022-08-28T04:29:36.636Z,1128.47
2022-08-28T04:30:36.633Z,1128.47
2022-08-28T04:31:36.648Z,1128.45
2022-08-28T04:32:36.644Z,1128.47
2022-08-28T04:33:36.644Z,1128.41
2022-08-28T04:34:36.644Z,1128.44
2022-08-28T04:35:36.646Z,1128.51
2022-08-28T04:36:36.649Z,1128.48
2022-08-28T04:37:36.646Z,1128.52
2022-08-28T04:38:39.244Z,1128.52
2022-08-28T04:39:36.655Z,1128.53
2022-08-28T04:40:36.683Z,1128.58
2022-08-28T04:41:36.653Z,1128.51
2022-08-28T04:42:36.655Z,1128.57
2022-08-28T04:43:36.659Z,1128.55
2022-08-28T04:44:36.661Z,1128.63
2022-08-28T04:45:36.722Z,1128.58
2022-08-28T04:46:36.661Z,1128.6
2022-08-28T04:47:36.664Z,1128.56
2022-08-28T04:48:36.667Z,1128.53
2022-08-28T04:49:36.669Z,1128.53
2022-08-28T04:50:36.671Z,1128.56
2022-08-28T04:51:40.069Z,1128.52
2022-08-28T04:52:36.676Z,1128.59
2022-08-28T04:53:36.676Z,1128.59
2022-08-28T04:54:36.681Z,1128.59
2022-08-28T04:55:53.424Z,1128.64
2022-08-28T04:56:36.682Z,1128.67
2022-08-28T04:57:36.701Z,1128.69
2022-08-28T04:58:36.692Z,1128.69
2022-08-28T04:59:36.686Z,1128.67
2022-08-28T05:00:36.693Z,1128.67
2022-08-28T05:01:36.759Z,1128.67
2022-08-28T05:02:36.760Z,1128.6
2022-08-28T05:03:36.691Z,1128.57
2022-08-28T05:04:36.695Z,1128.56
2022-08-28T05:05:36.698Z,1128.53
2022-08-28T05:06:36.699Z,1128.58
2022-08-28T05:07:36.700Z,1128.48
2022-08-28T05:08:36.702Z,1128.5
2022-08-28T05:09:36.704Z,1128.48
2022-08-28T05:10:36.703Z,1128.55
2022-08-28T05:11:36.705Z,1128.58
2022-08-28T05:12:36.711Z,1128.6
2022-08-28T05:13:36.711Z,1128.6
2022-08-28T05:14:36.729Z,1128.57
2022-08-28T05:15:36.715Z,1128.56
2022-08-28T05:16:36.761Z,1128.62
2022-08-28T05:17:36.719Z,1128.64
2022-08-28T05:18:36.723Z,1128.58
2022-08-28T05:19:36.748Z,1128.6
2022-08-28T05:20:36.723Z,1128.67
2022-08-28T05:21:36.725Z,1128.64
2022-08-28T05:22:36.726Z,1128.68
2022-08-28T05:23:36.730Z,1128.71
2022-08-28T05:24:36.735Z,1128.7
2022-08-28T05:25:36.731Z,1128.76
2022-08-28T05:26:36.733Z,1128.75
2022-08-28T05:27:36.736Z,1128.73
2022-08-28T05:28:36.740Z,1128.69
2022-08-28T05:29:36.739Z,1128.7
2022-08-28T05:30:36.741Z,1128.72
2022-08-28T05:31:36.817Z,1128.72
2022-08-28T05:32:36.744Z,1128.72
2022-08-28T05:33:36.759Z,1128.74
2022-08-28T05:34:36.748Z,1128.69
2022-08-28T05:35:36.748Z,1128.72
2022-08-28T05:36:36.753Z,1128.75
2022-08-28T05:37:36.752Z,1128.72
2022-08-28T05:38:36.758Z,1128.73
2022-08-28T05:39:36.757Z,1128.75
2022-08-28T05:40:36.831Z,1128.77
2022-08-28T05:41:36.762Z,1128.83
2022-08-28T05:42:38.946Z,1128.78
2022-08-28T05:43:36.763Z,1128.79
2022-08-28T05:44:36.765Z,1128.78
2022-08-28T05:45:36.811Z,1128.73
2022-08-28T05:46:36.768Z,1128.68
2022-08-28T05:47:36.771Z,1128.59
2022-08-28T05:48:38.829Z,1128.5
2022-08-28T05:49:36.773Z,1128.51
2022-08-28T05:50:36.778Z,1128.48
2022-08-28T05:51:36.789Z,1128.42
2022-08-28T05:52:36.784Z,1128.42
2022-08-28T05:53:36.780Z,1128.36
2022-08-28T05:54:36.784Z,1128.28
2022-08-28T05:55:36.785Z,1128.27
2022-08-28T05:56:36.785Z,1128.26
2022-08-28T05:57:36.788Z,1128.29
2022-08-28T05:58:36.792Z,1128.28
2022-08-28T05:59:36.793Z,1128.21
2022-08-28T06:00:36.795Z,1128.16
2022-08-28T06:01:36.858Z,1128.14
2022-08-28T06:02:36.799Z,1128.12
2022-08-28T06:03:36.857Z,1128.18
2022-08-28T06:04:36.872Z,1128.17
2022-08-28T06:05:36.806Z,1128.15
2022-08-28T06:06:36.804Z,1128.12
2022-08-28T06:07:36.804Z,1128.14
2022-08-28T06:08:36.808Z,1127.99
2022-08-28T06:09:36.811Z,1127.89
2022-08-28T06:10:36.811Z,1127.86
2022-08-28T06:11:42.131Z,1127.71
2022-08-28T06:12:36.817Z,1127.58
2022-08-28T06:13:36.818Z,1127.49
2022-08-28T06:14:36.819Z,1127.37
2022-08-28T06:15:36.824Z,1127.24
2022-08-28T06:16:36.852Z,1127.17
2022-08-28T06:17:36.824Z,1127.1
2022-08-28T06:18:36.825Z,1126.97
2022-08-28T06:19:40.720Z,1126.9
2022-08-28T06:20:36.829Z,1126.81
2022-08-28T06:21:36.830Z,1126.72
2022-08-28T06:22:39.958Z,1126.64
2022-08-28T06:23:36.834Z,1126.58
2022-08-28T06:24:36.850Z,1126.5
2022-08-28T06:25:36.841Z,1126.39
2022-08-28T06:26:36.848Z,1126.32
2022-08-28T06:27:36.840Z,1126.22
2022-08-28T06:28:36.863Z,1126.19
2022-08-28T06:29:36.851Z,1126.04
2022-08-28T06:30:36.853Z,1125.94
2022-08-28T06:31:36.916Z,1125.86
2022-08-28T06:32:36.855Z,1125.79
2022-08-28T06:33:38.003Z,1125.72
2022-08-28T06:34:36.934Z,1125.74
2022-08-28T06:35:36.864Z,1125.7
2022-08-28T06:36:36.861Z,1125.71
2022-08-28T06:37:36.859Z,1125.6
2022-08-28T06:38:36.860Z,1125.49
2022-08-28T06:39:36.866Z,1125.3
2022-08-28T06:40:36.903Z,1125.21
2022-08-28T06:41:36.876Z,1125.03
2022-08-28T06:42:36.887Z,1124.9
2022-08-28T06:43:36.872Z,1124.77
2022-08-28T06:44:39.640Z,1124.66
2022-08-28T06:45:36.975Z,1124.53
2022-08-28T06:46:36.875Z,1124.27
2022-08-28T06:47:36.879Z,1124.13
2022-08-28T06:48:36.878Z,1123.94
2022-08-28T06:49:36.880Z,1123.75
2022-08-28T06:50:36.882Z,1123.59
2022-08-28T06:51:36.887Z,1123.46
2022-08-28T06:52:36.890Z,1123.23
2022-08-28T06:53:36.889Z,1123.11
2022-08-28T06:54:36.900Z,1122.85
2022-08-28T06:55:39.658Z,1122.83
2022-08-28T06:56:36.893Z,1122.66
2022-08-28T06:57:36.895Z,1122.44
2022-08-28T06:58:36.899Z,1122.31
2022-08-28T06:59:36.899Z,1122.13
2022-08-28T07:00:36.902Z,1121.92
2022-08-28T07:01:36.993Z,1121.71
2022-08-28T07:02:36.922Z,1121.64
2022-08-28T07:03:36.904Z,1121.39
2022-08-28T07:04:36.907Z,1121.25
2022-08-28T07:05:36.912Z,1121.03
2022-08-28T07:06:36.910Z,1120.8
2022-08-28T07:07:36.918Z,1120.51
2022-08-28T07:08:36.915Z,1120.3
2022-08-28T07:09:36.934Z,1120.11
2022-08-28T07:10:36.919Z,1119.92
2022-08-28T07:11:36.920Z,1119.72
2022-08-28T07:12:36.926Z,1119.57
2022-08-28T07:13:36.921Z,1119.43
2022-08-28T07:14:36.940Z,1119.31
2022-08-28T07:15:36.939Z,1119.11
2022-08-28T07:16:36.927Z,1118.77
2022-08-28T07:17:36.932Z,1118.89
2022-08-28T07:18:36.934Z,1118.77
2022-08-28T07:19:36.952Z,1118.54
2022-08-28T07:20:36.937Z,1118.39
2022-08-28T07:21:38.347Z,1118.28
2022-08-28T07:22:36.946Z,1118.13
2022-08-28T07:23:36.943Z,1117.97
2022-08-28T07:24:36.962Z,1117.91
2022-08-28T07:25:36.943Z,1117.83
2022-08-28T07:26:36.947Z,1117.88
2022-08-28T07:27:36.951Z,1117.79
2022-08-28T07:28:36.952Z,1117.66
2022-08-28T07:29:36.970Z,1117.55
2022-08-28T07:30:36.952Z,1117.41
2022-08-28T07:31:36.991Z,1117.34
2022-08-28T07:32:36.961Z,1117.26
2022-08-28T07:33:37.113Z,1117.33
2022-08-28T07:34:37.000Z,1117.13
2022-08-28T07:35:36.966Z,1117.16
2022-08-28T07:36:36.968Z,1116.93
2022-08-28T07:37:36.966Z,1116.87
2022-08-28T07:38:36.970Z,1116.81
2022-08-28T07:39:36.986Z,1116.74
2022-08-28T07:40:37.062Z,1116.71
2022-08-28T07:41:36.977Z,1116.68
2022-08-28T07:42:36.986Z,1116.59
2022-08-28T07:43:36.975Z,1116.54
2022-08-28T07:44:36.999Z,1116.41
2022-08-28T07:45:37.017Z,1116.42
2022-08-28T07:46:36.982Z,1116.23
2022-08-28T07:47:36.983Z,1116.29
2022-08-28T07:48:36.990Z,1116.33
2022-08-28T07:49:37.006Z,1116.43
2022-08-28T07:50:36.994Z,1116.53
2022-08-28T07:51:36.992Z,1116.52
2022-08-28T07:52:36.994Z,1116.52
2022-08-28T07:53:36.997Z,1116.42
2022-08-28T07:54:37.012Z,1116.47
2022-08-28T07:55:37.000Z,1116.28
2022-08-28T07:56:37.000Z,1116.26
2022-08-28T07:57:37.006Z,1116.1
2022-08-28T07:58:37.007Z,1116.02
2022-08-28T07:59:37.237Z,1115.75
2022-08-28T08:00:37.012Z,1115.68
2022-08-28T08:01:37.032Z,1115.5
2022-08-28T08:02:37.013Z,1115.25
2022-08-28T08:03:37.058Z,1114.87
2022-08-28T08:04:37.063Z,1114.55
2022-08-28T08:05:37.023Z,1114.1
2022-08-28T08:06:37.017Z,1113.31
2022-08-28T08:07:37.020Z,1112.56
2022-08-28T08:08:37.027Z,1111.68
2022-08-28T08:09:37.026Z,1110.86
2022-08-28T08:10:37.027Z,1110.18
2022-08-28T08:11:37.027Z,1108.99
2022-08-28T08:12:37.031Z,1107.73
2022-08-28T08:13:37.032Z,1106.6
2022-08-28T08:14:37.032Z,1105.42
2022-08-28T08:15:37.083Z,1103.95
2022-08-28T08:16:37.038Z,1101.89
2022-08-28T08:17:37.041Z,1099.34
2022-08-28T08:18:37.042Z,1096.79
2022-08-28T08:19:37.041Z,1092.84
2022-08-28T08:20:37.045Z,1088.29
2022-08-28T08:21:37.045Z,1084.67
2022-08-28T08:22:37.048Z,1082.66
2022-08-28T08:23:37.049Z,1080.65
2022-08-28T08:24:37.052Z,1078.75
2022-08-28T08:25:37.058Z,1077.23
2022-08-28T08:26:37.057Z,1075.63
2022-08-28T08:27:39.918Z,1073.97
2022-08-28T08:28:37.060Z,1072.26
2022-08-28T08:29:37.061Z,1071.47
2022-08-28T08:30:37.065Z,1070.7
2022-08-28T08:31:37.086Z,1070.46
2022-08-28T08:32:37.068Z,1070.59
2022-08-28T08:33:37.070Z,1070.59
2022-08-28T08:34:37.069Z,1070.59
2022-08-28T08:35:37.071Z,1070.17
2022-08-28T08:36:37.074Z,1069.56
2022-08-28T08:37:37.075Z,1069.09
2022-08-28T08:38:37.079Z,1068.31
2022-08-28T08:39:37.080Z,1067.68
2022-08-28T08:40:37.121Z,1067.35
2022-08-28T08:41:37.114Z,1067.06
2022-08-28T08:42:37.084Z,1067.08
2022-08-28T08:43:37.089Z,1067.73
2022-08-28T08:44:37.091Z,1068.69
2022-08-28T08:45:37.089Z,1069.46
2022-08-28T08:46:37.132Z,1069.87
2022-08-28T08:47:37.129Z,1069.84
2022-08-28T08:48:37.096Z,1069.74
2022-08-28T08:49:40.109Z,1069.49
2022-08-28T08:50:37.100Z,1068.52
2022-08-28T08:51:37.102Z,1067.38
2022-08-28T08:52:37.105Z,1066.23
2022-08-28T08:53:37.109Z,1064.7
2022-08-28T08:54:37.109Z,1064.17
2022-08-28T08:55:37.109Z,1062.87
2022-08-28T08:56:37.108Z,1060.22
2022-08-28T08:57:37.116Z,1059.65
2022-08-28T08:58:37.113Z,1058.77
2022-08-28T08:59:37.118Z,1057.48
2022-08-28T09:00:39.901Z,1055.97
2022-08-28T09:01:37.170Z,1054.28
2022-08-28T09:02:37.124Z,1052.93
2022-08-28T09:03:37.161Z,1049.19
2022-08-28T09:04:37.124Z,1047.1
2022-08-28T09:05:37.125Z,1042.85
2022-08-28T09:06:37.129Z,1034.71
2022-08-28T09:07:37.132Z,1029.51
2022-08-28T09:08:37.134Z,1028.27
2022-08-28T09:09:37.167Z,1027.27
2022-08-28T09:10:37.139Z,1026.18
2022-08-28T09:11:39.999Z,1025.43
2022-08-28T09:12:37.141Z,1025.02
2022-08-28T09:13:37.146Z,1025.49
2022-08-28T09:14:37.143Z,1025.92
2022-08-28T09:15:37.186Z,1026.61
2022-08-28T09:16:37.146Z,1026.84
2022-08-28T09:17:37.148Z,1027.15
2022-08-28T09:18:38.360Z,1026.93
2022-08-28T09:19:37.153Z,1025.52
2022-08-28T09:20:37.155Z,1019.85
2022-08-28T09:21:37.155Z,1018.9
2022-08-28T09:22:39.962Z,1016.65
2022-08-28T09:23:37.164Z,1011.63
2022-08-28T09:24:37.163Z,1007.84
2022-08-28T09:25:37.168Z,1004.3
2022-08-28T09:26:37.165Z,1000.84
2022-08-28T09:27:38.806Z,996.55
2022-08-28T09:28:37.169Z,992.32
2022-08-28T09:29:37.170Z,987.27
2022-08-28T09:30:37.175Z,980.07
2022-08-28T09:31:37.179Z,973.18
2022-08-28T09:32:37.178Z,967.92
2022-08-28T09:33:41.844Z,963.07
2022-08-28T09:34:39.050Z,959.43
2022-08-28T09:35:37.187Z,952.88
2022-08-28T09:36:37.193Z,946.94
2022-08-28T09:37:37.186Z,940.2
2022-08-28T09:38:37.187Z,933.47
2022-08-28T09:39:37.287Z,930.18
2022-08-28T09:40:37.219Z,934.83
2022-08-28T09:41:37.193Z,929.07
2022-08-28T09:42:37.194Z,924.14
2022-08-28T09:43:37.204Z,919.29
2022-08-28T09:44:37.199Z,916.41
2022-08-28T09:45:37.208Z,919.96
2022-08-28T09:46:37.270Z,917.73
2022-08-28T09:47:40.573Z,919
2022-08-28T09:48:37.211Z,914.65
2022-08-28T09:49:37.208Z,908.23
2022-08-28T09:50:37.228Z,900.97
2022-08-28T09:51:37.211Z,894.94
2022-08-28T09:52:37.213Z,890.54
2022-08-28T09:53:37.216Z,885.42
2022-08-28T09:54:37.219Z,881.7
2022-08-28T09:55:37.235Z,879.86
2022-08-28T09:56:37.223Z,881.6
2022-08-28T09:57:37.224Z,875.76
2022-08-28T09:58:37.228Z,872.35
2022-08-28T09:59:37.229Z,867.7
2022-08-28T10:00:37.255Z,872.19
2022-08-28T10:01:37.264Z,874.57
2022-08-28T10:02:37.239Z,877.31
2022-08-28T10:03:37.239Z,876.1
2022-08-28T10:04:37.341Z,881.46
2022-08-28T10:05:37.262Z,885.55
2022-08-28T10:06:37.241Z,883.51
2022-08-28T10:07:37.245Z,883.51
2022-08-28T10:08:37.246Z,888.66
2022-08-28T10:09:37.249Z,893.37
2022-08-28T10:10:37.270Z,898.51
2022-08-28T10:11:37.282Z,902.52
2022-08-28T10:12:37.257Z,906.47
2022-08-28T10:13:37.258Z,909.67
2022-08-28T10:14:37.258Z,912.22
2022-08-28T10:15:41.256Z,915.63
2022-08-28T10:16:37.260Z,919.19
2022-08-28T10:17:37.262Z,922.64
2022-08-28T10:18:37.263Z,923.38
2022-08-28T10:19:37.268Z,920.74
2022-08-28T10:20:37.289Z,916.93
2022-08-28T10:21:37.270Z,913.55
2022-08-28T10:22:37.275Z,914.63
2022-08-28T10:23:37.282Z,916.54
2022-08-28T10:24:37.275Z,917.13
2022-08-28T10:25:37.293Z,918.72
2022-08-28T10:26:37.279Z,917.82
2022-08-28T10:27:37.281Z,917.98
2022-08-28T10:28:37.284Z,919.41
2022-08-28T10:29:37.288Z,921.41
2022-08-28T10:30:37.322Z,923.55
2022-08-28T10:31:37.317Z,926.38
2022-08-28T10:32:37.293Z,928.49
2022-08-28T10:33:37.294Z,924.48
2022-08-28T10:34:37.295Z,924.9
2022-08-28T10:35:37.328Z,924.99
2022-08-28T10:36:37.298Z,921.82
2022-08-28T10:37:37.299Z,915
2022-08-28T10:38:37.310Z,917.38
2022-08-28T10:39:37.356Z,919.16
2022-08-28T10:40:37.352Z,920.73
2022-08-28T10:41:37.306Z,920.25
2022-08-28T10:42:37.311Z,915.7
2022-08-28T10:43:37.312Z,912.24
2022-08-28T10:44:37.314Z,913.32
2022-08-28T10:45:37.331Z,916.1
2022-08-28T10:46:37.370Z,918.6
2022-08-28T10:47:37.319Z,920.74
2022-08-28T10:48:37.347Z,922.66
2022-08-28T10:49:37.322Z,924.06
2022-08-28T10:50:37.345Z,925.8
2022-08-28T10:51:39.499Z,927.96
2022-08-28T10:52:37.378Z,929.91
2022-08-28T10:53:37.330Z,930.18
2022-08-28T10:54:37.331Z,928.66
2022-08-28T10:55:37.348Z,925.6
2022-08-28T10:56:37.334Z,918.11
2022-08-28T10:57:39.613Z,911.71
2022-08-28T10:58:37.341Z,905.62
2022-08-28T10:59:41.932Z,902.78
2022-08-28T11:00:37.361Z,902.93
2022-08-28T11:01:37.401Z,898.8
2022-08-28T11:02:37.431Z,896.57
2022-08-28T11:03:37.349Z,895.33
2022-08-28T11:04:37.352Z,891.02
2022-08-28T11:05:37.370Z,883.75
2022-08-28T11:06:37.372Z,873.48
2022-08-28T11:07:37.390Z,865.66
2022-08-28T11:08:37.360Z,856.46
2022-08-28T11:09:37.360Z,854.24
2022-08-28T11:10:37.378Z,857.52
2022-08-28T11:11:37.367Z,859.68
2022-08-28T11:12:37.365Z,860.7
2022-08-28T11:13:37.368Z,860.09
2022-08-28T11:14:42.783Z,855.22
2022-08-28T11:15:37.715Z,845.62
2022-08-28T11:16:40.496Z,837.31
2022-08-28T11:17:37.374Z,835.49
2022-08-28T11:18:37.378Z,838.01
2022-08-28T11:19:40.822Z,833.22
2022-08-28T11:20:37.397Z,827.54
2022-08-28T11:21:37.384Z,819.29
2022-08-28T11:22:37.448Z,813.21
2022-08-28T11:23:37.390Z,806.74
2022-08-28T11:24:37.394Z,801.45
2022-08-28T11:25:37.411Z,801.18
2022-08-28T11:26:37.401Z,808.09
2022-08-28T11:27:40.519Z,814.66
2022-08-28T11:28:37.399Z,821.29
2022-08-28T11:29:37.402Z,829.53
2022-08-28T11:30:37.431Z,837
2022-08-28T11:31:37.404Z,844.39
2022-08-28T11:32:41.425Z,851.01
2022-08-28T11:33:37.410Z,857.17
2022-08-28T11:34:37.410Z,862.84
2022-08-28T11:35:37.443Z,869.34
2022-08-28T11:36:37.412Z,875.66
2022-08-28T11:37:37.415Z,881.13
2022-08-28T11:38:40.435Z,885.57
2022-08-28T11:39:37.420Z,890.31
2022-08-28T11:40:37.495Z,894.61
2022-08-28T11:41:37.422Z,899.02
2022-08-28T11:42:37.460Z,902.46
2022-08-28T11:43:37.424Z,904.81
2022-08-28T11:44:37.428Z,907
2022-08-28T11:45:37.476Z,909.21
2022-08-28T11:46:37.455Z,912.22
2022-08-28T11:47:37.433Z,914.43
2022-08-28T11:48:37.436Z,916.44
2022-08-28T11:49:40.527Z,918.96
2022-08-28T11:50:37.456Z,921.26
2022-08-28T11:51:37.439Z,923.74
2022-08-28T11:52:37.492Z,925.75
2022-08-28T11:53:37.446Z,927.53
2022-08-28T11:54:37.446Z,928.56
2022-08-28T11:55:37.467Z,929.97
2022-08-28T11:56:37.449Z,932.21
2022-08-28T11:57:37.451Z,933.6
2022-08-28T11:58:37.453Z,935.03
2022-08-28T11:59:37.457Z,935.43
2022-08-28T12:00:41.254Z,936.68
2022-08-28T12:01:37.461Z,936.76
2022-08-28T12:02:37.516Z,937
2022-08-28T12:03:37.465Z,938.46
2022-08-28T12:04:37.555Z,939.49
2022-08-28T12:05:37.468Z,940.01
2022-08-28T12:06:37.488Z,940.52
2022-08-28T12:07:37.472Z,940.86
2022-08-28T12:08:37.471Z,941.56
2022-08-28T12:09:37.475Z,942.77
2022-08-28T12:10:37.475Z,944.91
2022-08-28T12:11:37.484Z,946.48
2022-08-28T12:12:37.481Z,948.04
2022-08-28T12:13:37.485Z,949.57